Time;durP1;ratioP1;P1;durP2;ratioP2;P2;SDS_P1;SDS_P2;PMS_P1;PMS_P2;Temp;Humidity;BMP_temperature;BMP_pressure;BME280_temperature;BME280_humidity;BME280_pressure;Samples;Min_cycle;Max_cycle;Signal;HPM_P1;HPM_P2
2022/01/08 00:01:44;;;;;;;11.35;4.72;;;;;;;0.42;100.00;100020.31;7395125;19;20194;-44
2022/01/08 00:04:14;;;;;;;5.32;2.97;;;;;;;0.42;100.00;100016.88;7399351;19;20133;-45
2022/01/08 00:06:43;;;;;;;6.85;3.25;;;;;;;0.41;100.00;100010.91;7395531;19;20174;-46
2022/01/08 00:09:13;;;;;;;5.63;3.28;;;;;;;0.39;100.00;100015.91;7397202;19;20173;-48
2022/01/08 00:11:43;;;;;;;7.60;3.25;;;;;;;0.34;100.00;100017.22;7394080;19;20242;-47
2022/01/08 00:14:14;;;;;;;5.53;2.60;;;;;;;0.42;100.00;100022.84;7397897;19;20218;-51
2022/01/08 00:16:46;;;;;;;10.25;4.53;;;;;;;0.31;100.00;100028.81;7395525;19;20186;-50
2022/01/08 00:19:16;;;;;;;10.38;4.03;;;;;;;0.29;100.00;100033.78;7396968;19;20158;-48
2022/01/08 00:21:45;;;;;;;6.55;4.05;;;;;;;0.30;100.00;100025.38;7395672;19;20213;-50
2022/01/08 00:24:15;;;;;;;8.88;3.65;;;;;;;0.29;100.00;100036.31;7398465;19;20133;-50
2022/01/08 00:26:45;;;;;;;6.55;3.35;;;;;;;0.29;100.00;100028.69;7394761;19;20190;-51
2022/01/08 00:29:14;;;;;;;6.43;2.85;;;;;;;0.36;100.00;100038.50;7396828;19;20169;-47
2022/01/08 00:31:46;;;;;;;5.50;2.28;;;;;;;0.30;100.00;100029.59;7394902;19;20481;-48
2022/01/08 00:34:16;;;;;;;12.15;7.32;;;;;;;0.37;100.00;100030.13;7397933;19;20179;-50
2022/01/08 00:36:45;;;;;;;11.98;5.30;;;;;;;0.32;100.00;100028.94;7391949;19;20604;-47
2022/01/08 00:39:15;;;;;;;12.73;6.10;;;;;;;0.31;100.00;100019.53;7399363;19;20169;-48
2022/01/08 00:41:44;;;;;;;11.38;5.70;;;;;;;0.31;100.00;100019.53;7394113;19;20190;-47
2022/01/08 00:44:16;;;;;;;8.50;4.53;;;;;;;0.28;100.00;100021.88;7397770;19;20119;-49
2022/01/08 00:46:48;;;;;;;12.25;6.60;;;;;;;0.35;100.00;100018.09;7394212;19;20242;-49
2022/01/08 00:49:17;;;;;;;15.90;7.20;;;;;;;0.30;100.00;100020.31;7396617;19;20165;-48
2022/01/08 00:51:47;;;;;;;14.52;5.93;;;;;;;0.29;100.00;100021.09;7393742;19;20204;-46
2022/01/08 00:54:16;;;;;;;14.07;6.50;;;;;;;0.30;100.00;100019.44;7397014;19;20201;-45
2022/01/08 00:56:46;;;;;;;11.40;5.53;;;;;;;0.34;100.00;100019.75;7395796;19;20191;-52
2022/01/08 00:59:15;;;;;;;14.63;7.82;;;;;;;0.28;100.00;100021.88;7395685;19;20214;-46
2022/01/08 01:01:47;;;;;;;13.82;7.50;;;;;;;0.23;100.00;100015.56;7393676;19;20190;-48
2022/01/08 01:04:17;;;;;;;14.18;5.97;;;;;;;0.24;100.00;100019.88;7400273;19;20199;-48
2022/01/08 01:06:46;;;;;;;13.60;7.53;;;;;;;0.19;100.00;100023.72;7393358;19;21276;-49
2022/01/08 01:09:16;;;;;;;16.25;7.05;;;;;;;0.22;100.00;100019.78;7395163;19;20155;-48
2022/01/08 01:11:45;;;;;;;17.42;8.27;;;;;;;0.21;100.00;100019.66;7396250;19;20186;-48
2022/01/08 01:14:15;;;;;;;12.30;7.53;;;;;;;0.24;100.00;100017.34;7397352;19;20130;-51
2022/01/08 01:16:47;;;;;;;11.07;6.32;;;;;;;0.29;100.00;100017.69;7396085;19;20186;-50
2022/01/08 01:19:17;;;;;;;11.88;4.32;;;;;;;0.21;100.00;100022.22;7395090;19;20169;-49
2022/01/08 01:21:46;;;;;;;11.32;6.57;;;;;;;0.28;100.00;100015.91;7391492;19;20182;-50
2022/01/08 01:24:20;;;;;;;16.67;7.03;;;;;;;0.29;100.00;100008.41;7400677;19;20183;-45
2022/01/08 01:27:10;;;;;;;11.00;5.57;;;;;;;0.28;100.00;100019.34;7399676;19;20422;-48
2022/01/08 01:29:49;;;;;;;20.55;8.38;;;;;;;0.29;100.00;100016.00;7402053;19;20161;-49
2022/01/08 01:43:27;;;;;;;11.60;6.70;;;;;;;0.35;100.00;100018.09;7399943;19;20254;-51
2022/01/08 01:48:42;;;;;;;15.70;6.70;;;;;;;0.35;100.00;100015.56;7401020;19;20182;-48
2022/01/08 01:51:19;;;;;;;12.38;5.63;;;;;;;0.30;100.00;100027.06;7403591;19;20115;-48
2022/01/08 01:53:49;;;;;;;22.77;11.85;;;;;;;0.37;100.00;100016.56;7402862;19;20174;-49
2022/01/08 01:56:19;;;;;;;16.48;7.95;;;;;;;0.31;100.00;100022.06;7398862;19;20194;-46
2022/01/08 01:58:49;;;;;;;23.85;11.93;;;;;;;0.31;100.00;100021.22;7401033;19;20161;-49
2022/01/08 02:01:19;;;;;;;18.98;8.02;;;;;;;0.28;100.00;100026.94;7398151;19;20186;-48
2022/01/08 02:03:52;;;;;;;28.00;11.30;;;;;;;0.34;100.00;100016.34;7402627;19;20119;-48
2022/01/08 02:06:21;;;;;;;22.10;11.68;;;;;;;0.31;100.00;100022.06;7399241;19;20179;-51
2022/01/08 02:08:51;;;;;;;19.02;8.70;;;;;;;0.24;100.00;100017.34;7400546;19;20444;-47
2022/01/08 02:11:21;;;;;;;21.50;7.53;;;;;;;0.31;100.00;100019.53;7399139;19;20126;-51
2022/01/08 02:13:53;;;;;;;20.15;10.43;;;;;;;0.29;100.00;100018.56;7402694;19;20127;-48
2022/01/08 02:16:23;;;;;;;19.92;11.88;;;;;;;0.30;100.00;100030.47;7399472;19;20191;-48
2022/01/08 02:18:55;;;;;;;19.35;10.13;;;;;;;0.30;100.00;100019.44;7395031;19;20170;-51
2022/01/08 02:21:28;;;;;;;16.52;6.63;;;;;;;0.29;100.00;100026.16;7397139;19;20126;-48
2022/01/08 02:23:57;;;;;;;8.70;4.15;;;;;;;0.35;100.00;100013.91;7405415;19;20120;-48
2022/01/08 02:26:27;;;;;;;19.00;10.30;;;;;;;0.33;100.00;100025.63;7398084;19;20134;-48
2022/01/08 02:28:56;;;;;;;14.05;7.93;;;;;;;0.34;100.00;100031.56;7400141;19;20206;-52
2022/01/08 02:31:27;;;;;;;23.30;8.15;;;;;;;0.38;100.00;100026.84;7398493;19;20131;-47
2022/01/08 02:33:57;;;;;;;19.30;8.77;;;;;;;0.34;100.00;100026.47;7403108;19;20186;-49
2022/01/08 02:36:29;;;;;;;13.90;9.02;;;;;;;0.35;100.00;100026.59;7396359;19;20123;-47
2022/01/08 02:38:58;;;;;;;14.52;7.05;;;;;;;0.29;100.00;100031.25;7403011;19;20272;-47
2022/01/08 02:41:28;;;;;;;13.13;8.13;;;;;;;0.33;100.00;100035.78;7397217;19;20131;-50
2022/01/08 02:43:57;;;;;;;16.55;9.38;;;;;;;0.39;100.00;100031.13;7402092;19;20129;-47
2022/01/08 02:46:28;;;;;;;18.63;9.02;;;;;;;0.34;100.00;100032.47;7397798;19;20719;-48
2022/01/08 02:48:57;;;;;;;14.35;8.75;;;;;;;0.31;100.00;100039.84;7398642;19;20163;-47
2022/01/08 02:51:31;;;;;;;21.65;8.95;;;;;;;0.40;100.00;100037.97;7401325;19;20133;-48
2022/01/08 02:54:00;;;;;;;14.15;9.30;;;;;;;0.38;100.00;100038.63;7401890;19;20136;-48
2022/01/08 02:56:30;;;;;;;12.13;7.07;;;;;;;0.38;100.00;100028.47;7400486;19;20158;-48
2022/01/08 02:58:59;;;;;;;14.23;7.65;;;;;;;0.40;100.00;100032.00;7399578;19;20477;-47
2022/01/08 03:01:29;;;;;;;10.63;5.82;;;;;;;0.34;100.00;100027.38;7396958;19;20119;-48
2022/01/08 03:03:58;;;;;;;13.50;8.00;;;;;;;0.36;100.00;100020.75;7401386;19;20532;-50
2022/01/08 03:06:31;;;;;;;18.80;7.93;;;;;;;0.46;100.00;100022.28;7397274;19;20123;-51
2022/01/08 03:09:00;;;;;;;14.10;7.97;;;;;;;0.51;100.00;100025.16;7399569;19;20154;-49
2022/01/08 03:11:30;;;;;;;9.68;5.22;;;;;;;0.39;100.00;100025.16;7396970;19;20119;-47
2022/01/08 03:13:59;;;;;;;16.10;6.50;;;;;;;0.33;100.00;100025.63;7401158;19;20191;-48
2022/01/08 03:16:29;;;;;;;6.75;3.95;;;;;;;0.33;100.00;100019.66;7396943;19;20134;-47
2022/01/08 03:18:58;;;;;;;14.70;7.63;;;;;;;0.46;100.00;100017.19;7398974;19;20177;-46
2022/01/08 03:21:35;;;;;;;19.48;8.52;;;;;;;0.47;100.00;100024.03;7395696;19;20142;-48
2022/01/08 03:24:07;;;;;;;16.63;7.63;;;;;;;0.46;100.00;100029.03;7404298;19;20178;-47
2022/01/08 03:26:36;;;;;;;13.40;8.00;;;;;;;0.57;100.00;100025.59;7396253;19;20186;-45
2022/01/08 03:29:06;;;;;;;15.10;7.38;;;;;;;0.49;100.00;100027.59;7399060;19;20175;-45
2022/01/08 03:31:35;;;;;;;12.20;4.63;;;;;;;0.35;100.00;100034.22;7395940;19;20241;-50
2022/01/08 03:34:05;;;;;;;12.50;6.30;;;;;;;0.39;100.00;100033.66;7400307;19;20123;-45
2022/01/08 03:36:37;;;;;;;12.88;7.50;;;;;;;0.43;100.00;100037.31;7395849;19;20190;-48
2022/01/08 03:39:07;;;;;;;13.50;6.75;;;;;;;0.41;100.00;100028.69;7401229;19;20158;-49
2022/01/08 03:41:37;;;;;;;13.93;7.80;;;;;;;0.39;100.00;100026.06;7396346;19;20208;-51
2022/01/08 03:44:07;;;;;;;13.60;6.40;;;;;;;0.26;100.00;100033.56;7402493;19;20141;-52
2022/01/08 03:46:37;;;;;;;12.73;6.03;;;;;;;0.21;100.00;100027.28;7395532;19;20458;-47
2022/01/08 03:49:23;;;;;;;9.07;4.85;;;;;;;0.22;100.00;100035.00;7396592;19;20218;-49
2022/01/08 03:51:58;;;;;;;14.30;6.53;;;;;;;0.25;100.00;100042.84;7394176;19;20258;-49
2022/01/08 03:54:27;;;;;;;15.25;7.03;;;;;;;0.33;100.00;100032.34;7402329;19;20404;-47
2022/01/08 03:56:57;;;;;;;23.92;9.20;;;;;;;0.31;100.00;100037.28;7394672;19;20182;-46
2022/01/08 03:59:26;;;;;;;16.15;7.78;;;;;;;0.29;100.00;100038.84;7398581;19;20162;-49
2022/01/08 04:01:56;;;;;;;16.60;8.85;;;;;;;0.33;100.00;100038.31;7394750;19;20600;-47
2022/01/08 04:04:25;;;;;;;18.55;8.73;;;;;;;0.32;100.00;100034.00;7398820;19;20120;-49
2022/01/08 04:06:57;;;;;;;21.48;9.48;;;;;;;0.32;100.00;100028.94;7396122;19;20189;-50
2022/01/08 04:09:27;;;;;;;24.75;10.32;;;;;;;0.30;100.00;100020.31;7398415;19;20163;-47
2022/01/08 04:11:57;;;;;;;17.60;9.30;;;;;;;0.30;100.00;100010.16;7395222;19;20603;-47
2022/01/08 04:14:34;;;;;;;23.73;10.43;;;;;;;0.26;100.00;100018.34;7400604;19;20129;-53
2022/01/08 04:17:03;;;;;;;18.48;10.00;;;;;;;0.31;100.00;100011.06;7394594;19;20505;-50
2022/01/08 04:19:33;;;;;;;29.45;13.27;;;;;;;0.26;100.00;100013.28;7397688;19;20165;-53
2022/01/08 04:22:11;;;;;;;25.63;7.95;;;;;;;0.24;100.00;100002.09;7394903;19;20448;-50
2022/01/08 04:24:41;;;;;;;21.15;10.40;;;;;;;0.22;100.00;100007.09;7399149;19;20121;-45
2022/01/08 04:27:12;;;;;;;17.17;9.13;;;;;;;0.27;100.00;100004.88;7393846;19;20186;-47
2022/01/08 04:29:42;;;;;;;28.67;11.10;;;;;;;0.28;100.00;100005.75;7397637;19;20150;-51
2022/01/08 04:32:11;;;;;;;23.60;11.48;;;;;;;0.25;100.00;99994.63;7394752;19;20192;-49
2022/01/08 04:34:41;;;;;;;24.00;11.68;;;;;;;0.25;100.00;99986.09;7398837;19;20133;-46
2022/01/08 04:37:14;;;;;;;22.75;13.30;;;;;;;0.35;100.00;99988.53;7394109;19;20182;-51
2022/01/08 04:39:43;;;;;;;23.48;12.18;;;;;;;0.28;100.00;100000.66;7397323;19;20155;-55
2022/01/08 04:42:13;;;;;;;23.77;11.07;;;;;;;0.28;100.00;100004.09;7393373;19;20193;-50
2022/01/08 04:44:42;;;;;;;22.83;11.20;;;;;;;0.26;100.00;100010.72;7398691;19;20123;-53
2022/01/08 04:47:12;;;;;;;21.13;10.10;;;;;;;0.23;100.00;100023.19;7395158;19;20182;-47
2022/01/08 04:49:42;;;;;;;18.50;8.20;;;;;;;0.20;100.00;100023.00;7396986;19;20158;-46
2022/01/08 04:52:14;;;;;;;22.05;11.38;;;;;;;0.26;100.00;100021.75;7394211;19;20632;-46
2022/01/08 04:54:43;;;;;;;16.95;7.88;;;;;;;0.30;100.00;100020.31;7398303;19;20123;-52
2022/01/08 04:57:13;;;;;;;20.02;10.57;;;;;;;0.26;100.00;100009.06;7394571;19;20519;-46
2022/01/08 04:59:42;;;;;;;22.63;10.10;;;;;;;0.25;100.00;100006.41;7401532;19;20218;-45
2022/01/08 05:02:12;;;;;;;23.27;11.85;;;;;;;0.29;100.00;100007.53;7397980;19;20186;-51
2022/01/08 05:04:41;;;;;;;29.70;12.20;;;;;;;0.31;100.00;100017.00;7405699;19;20566;-46
2022/01/08 05:07:14;;;;;;;32.00;11.25;;;;;;;0.26;100.00;100009.06;7400855;19;20190;-46
2022/01/08 05:09:44;;;;;;;27.02;9.93;;;;;;;0.30;100.00;100004.22;7402844;19;20554;-51
2022/01/08 05:12:14;;;;;;;20.13;10.52;;;;;;;0.31;100.00;99996.69;7402840;19;20186;-50
2022/01/08 05:14:44;;;;;;;21.48;11.20;;;;;;;0.34;100.00;99999.47;7405442;19;20174;-46
2022/01/08 05:17:14;;;;;;;36.38;10.77;;;;;;;0.37;100.00;99994.59;7399367;19;20250;-53
2022/01/08 05:19:48;;;;;;;29.10;11.98;;;;;;;0.35;100.00;100000.31;7402398;19;20155;-50
2022/01/08 05:22:24;;;;;;;25.85;11.80;;;;;;;0.36;100.00;100009.72;7399920;19;20235;-46
2022/01/08 05:24:54;;;;;;;19.90;10.35;;;;;;;0.36;100.00;100008.06;7407434;19;20129;-50
2022/01/08 05:27:23;;;;;;;18.02;8.90;;;;;;;0.30;100.00;100006.75;7399439;19;20192;-51
2022/01/08 05:29:55;;;;;;;25.58;10.15;;;;;;;0.34;100.00;100011.25;7402202;19;20169;-48
2022/01/08 05:32:24;;;;;;;19.83;9.10;;;;;;;0.31;100.00;100001.75;7400211;19;20586;-50
2022/01/08 05:34:54;;;;;;;22.67;11.27;;;;;;;0.32;100.00;99998.47;7404785;19;20123;-51
2022/01/08 05:37:26;;;;;;;20.17;8.80;;;;;;;0.33;100.00;100000.25;7399666;19;20258;-52
2022/01/08 05:39:58;;;;;;;24.33;12.02;;;;;;;0.38;100.00;100005.63;7405071;19;20118;-49
2022/01/08 05:42:28;;;;;;;22.95;10.40;;;;;;;0.34;100.00;100011.25;7398898;19;20190;-47
2022/01/08 05:44:58;;;;;;;16.13;7.65;;;;;;;0.32;100.00;100021.31;7404436;19;20178;-46
2022/01/08 05:47:34;;;;;;;19.38;9.98;;;;;;;0.40;100.00;100015.13;7400340;19;20196;-49
2022/01/08 05:50:06;;;;;;;12.88;6.50;;;;;;;0.35;100.00;100024.06;7404385;19;20154;-48
2022/01/08 05:52:38;;;;;;;15.10;7.15;;;;;;;0.36;100.00;100028.38;7399443;19;20258;-52
2022/01/08 05:55:08;;;;;;;24.13;10.75;;;;;;;0.45;100.00;100029.81;7404296;19;20123;-47
2022/01/08 05:57:37;;;;;;;23.13;11.45;;;;;;;0.46;100.00;100029.03;7398983;19;20248;-49
2022/01/08 06:00:10;;;;;;;19.52;10.95;;;;;;;0.48;100.00;100027.47;7403973;19;20170;-47
2022/01/08 06:02:40;;;;;;;20.35;9.70;;;;;;;0.42;100.00;100035.53;7398569;19;20186;-53
2022/01/08 06:05:11;;;;;;;24.80;10.77;;;;;;;0.52;100.00;100044.69;7404017;19;20132;-46
2022/01/08 06:07:43;;;;;;;16.55;8.50;;;;;;;0.46;100.00;100046.78;7398778;19;20190;-48
2022/01/08 06:10:13;;;;;;;15.30;6.85;;;;;;;0.72;100.00;100045.22;7401592;19;20119;-52
2022/01/08 06:12:42;;;;;;;19.67;9.32;;;;;;;0.72;100.00;100040.13;7398928;19;20197;-49
2022/01/08 06:15:12;;;;;;;19.42;9.43;;;;;;;0.67;100.00;100042.34;7403476;19;20171;-46
2022/01/08 06:17:41;;;;;;;26.10;12.10;;;;;;;0.63;100.00;100036.19;7398091;19;20192;-52
2022/01/08 06:20:12;;;;;;;16.25;8.00;;;;;;;0.56;100.00;100044.13;7407062;19;20123;-53
2022/01/08 06:22:44;;;;;;;24.38;10.00;;;;;;;0.66;100.00;100044.00;7398052;19;20186;-48
2022/01/08 06:25:14;;;;;;;21.00;9.50;;;;;;;0.61;100.00;100054.63;7403358;19;20127;-47
2022/01/08 06:27:43;;;;;;;14.02;7.45;;;;;;;0.54;100.00;100071.06;7397583;19;20190;-45
2022/01/08 06:30:13;;;;;;;13.65;7.32;;;;;;;0.52;100.00;100067.53;7403162;19;20119;-46
2022/01/08 06:32:42;;;;;;;28.33;9.60;;;;;;;0.48;100.00;100074.06;7398589;19;20536;-47
2022/01/08 06:35:12;;;;;;;23.00;7.90;;;;;;;0.49;100.00;100080.91;7402954;19;20119;-47
2022/01/08 06:37:44;;;;;;;20.65;9.90;;;;;;;0.57;100.00;100086.53;7397447;19;20533;-46
2022/01/08 06:40:14;;;;;;;18.52;8.80;;;;;;;0.49;100.00;100077.47;7402913;19;20127;-48
2022/01/08 06:42:44;;;;;;;22.92;10.40;;;;;;;0.51;100.00;100081.00;7399831;19;20190;-48
2022/01/08 06:45:13;;;;;;;30.75;11.68;;;;;;;0.52;100.00;100085.31;7402536;19;20179;-47
2022/01/08 06:47:45;;;;;;;23.55;10.68;;;;;;;0.49;100.00;100088.50;7399471;19;20186;-51
2022/01/08 06:50:15;;;;;;;21.60;9.55;;;;;;;0.44;100.00;100083.84;7402823;19;20138;-47
2022/01/08 06:52:47;;;;;;;19.08;6.63;;;;;;;0.47;100.00;100084.09;7397739;19;20517;-45
2022/01/08 06:55:16;;;;;;;18.27;8.90;;;;;;;0.44;100.00;100083.84;7402219;19;20123;-45
2022/01/08 06:57:46;;;;;;;11.80;6.78;;;;;;;0.45;100.00;100091.59;7396683;19;20187;-52
2022/01/08 07:00:16;;;;;;;24.10;12.10;;;;;;;0.48;100.00;100081.69;7402292;19;20661;-49
2022/01/08 07:02:46;;;;;;;18.05;8.07;;;;;;;0.44;100.00;100083.84;7397060;19;20183;-48
2022/01/08 07:05:15;;;;;;;14.73;6.50;;;;;;;0.44;100.00;100084.75;7401813;19;20119;-50
2022/01/08 07:07:48;;;;;;;21.15;8.82;;;;;;;0.42;100.00;100085.41;7396707;19;20197;-48
2022/01/08 07:10:18;;;;;;;16.92;7.68;;;;;;;0.42;100.00;100066.00;7401530;19;20123;-49
2022/01/08 07:12:47;;;;;;;25.35;10.98;;;;;;;0.46;100.00;100073.03;7397057;19;20245;-51
2022/01/08 07:15:17;;;;;;;25.27;8.85;;;;;;;0.48;100.00;100075.69;7401296;19;20125;-47
2022/01/08 07:17:46;;;;;;;26.73;11.88;;;;;;;0.50;100.00;100074.16;7396147;19;20473;-46
2022/01/08 07:20:16;;;;;;;22.35;10.25;;;;;;;0.50;100.00;100072.50;7401004;19;20521;-47
2022/01/08 07:22:48;;;;;;;21.30;10.55;;;;;;;0.49;100.00;100072.38;7396859;19;20187;-48
2022/01/08 07:25:18;;;;;;;22.02;10.23;;;;;;;0.52;100.00;100068.41;7401284;19;20123;-50
2022/01/08 07:27:48;;;;;;;17.95;9.00;;;;;;;0.52;100.00;100072.63;7395556;19;20230;-45
2022/01/08 07:30:21;;;;;;;18.23;8.95;;;;;;;0.51;100.00;100073.41;7401094;19;20123;-50
2022/01/08 07:32:52;;;;;;;21.92;10.95;;;;;;;0.52;100.00;100065.88;7398582;19;20521;-45
2022/01/08 07:35:23;;;;;;;26.70;12.52;;;;;;;0.53;100.00;100064.22;7401073;19;20424;-49
2022/01/08 07:37:58;;;;;;;17.30;6.20;;;;;;;0.50;100.00;100061.44;7394458;19;20210;-53
2022/01/08 07:40:28;;;;;;;16.58;9.13;;;;;;;0.55;100.00;100062.66;7400431;19;20189;-54
2022/01/08 07:42:58;;;;;;;25.45;10.73;;;;;;;0.56;100.00;100064.44;7396234;19;20527;-47
2022/01/08 07:45:27;;;;;;;18.95;8.80;;;;;;;0.58;100.00;100062.91;7400431;19;20195;-50
2022/01/08 07:47:57;;;;;;;21.55;8.57;;;;;;;0.68;100.00;100066.97;7395157;19;20254;-50
2022/01/08 07:50:26;;;;;;;36.35;15.40;;;;;;;0.92;100.00;100059.31;7400752;19;20123;-53
2022/01/08 07:52:58;;;;;;;60.85;28.48;;;;;;;1.08;100.00;100061.25;7395366;19;20187;-51
2022/01/08 07:55:28;;;;;;;17.42;7.80;;;;;;;0.62;100.00;100059.78;7400127;19;20517;-50
2022/01/08 07:57:57;;;;;;;37.15;8.30;;;;;;;0.61;100.00;100063.09;7394774;19;20628;-51
2022/01/08 08:00:27;;;;;;;19.08;9.48;;;;;;;0.57;100.00;100060.25;7399885;19;20144;-48
2022/01/08 08:02:56;;;;;;;20.45;9.80;;;;;;;0.63;100.00;100058.13;7395428;19;20504;-48
2022/01/08 08:05:26;;;;;;;26.65;11.27;;;;;;;0.67;100.00;100048.28;7398230;19;20138;-46
2022/01/08 08:07:58;;;;;;;24.80;10.90;;;;;;;0.63;100.00;100056.50;7394091;19;20238;-47
2022/01/08 08:10:29;;;;;;;25.80;11.07;;;;;;;0.65;100.00;100060.00;7399568;19;20186;-46
2022/01/08 08:13:00;;;;;;;27.40;10.43;;;;;;;0.62;100.00;100054.69;7394916;19;20190;-49
2022/01/08 08:15:29;;;;;;;13.88;6.55;;;;;;;0.62;100.00;100048.75;7399650;19;20123;-49
2022/01/08 08:17:59;;;;;;;21.63;10.30;;;;;;;0.62;100.00;100047.09;7393844;19;20249;-47
2022/01/08 08:20:28;;;;;;;26.58;11.07;;;;;;;0.62;100.00;100044.53;7398902;19;20119;-46
2022/01/08 08:23:00;;;;;;;26.70;12.30;;;;;;;0.67;100.00;100049.97;7397613;19;20190;-46
2022/01/08 08:25:30;;;;;;;25.40;12.75;;;;;;;0.72;100.00;100048.63;7397703;19;20171;-45
2022/01/08 08:28:00;;;;;;;21.10;8.85;;;;;;;0.67;100.00;100050.84;7393847;19;20250;-45
2022/01/08 08:30:29;;;;;;;21.52;9.80;;;;;;;0.62;100.00;100044.53;7398990;19;20180;-49
2022/01/08 08:32:59;;;;;;;27.88;11.88;;;;;;;0.66;100.00;100049.06;7392739;19;20186;-47
2022/01/08 08:35:28;;;;;;;29.50;11.43;;;;;;;0.60;100.00;100046.09;7398996;19;20167;-46
2022/01/08 08:38:00;;;;;;;30.77;8.98;;;;;;;0.61;100.00;100037.72;7393691;19;20194;-51
2022/01/08 08:40:30;;;;;;;28.00;12.82;;;;;;;0.67;100.00;100048.28;7398893;19;20178;-49
2022/01/08 08:42:59;;;;;;;37.30;12.82;;;;;;;0.70;100.00;100036.56;7394051;19;20238;-50
2022/01/08 08:45:29;;;;;;;17.30;7.70;;;;;;;0.71;100.00;100023.13;7401168;19;20562;-46
2022/01/08 08:47:58;;;;;;;26.05;11.75;;;;;;;0.74;100.00;100033.50;7397519;19;20195;-49
2022/01/08 08:50:28;;;;;;;16.38;6.68;;;;;;;0.67;100.00;100025.44;7398412;19;20140;-51
2022/01/08 08:52:57;;;;;;;31.48;12.82;;;;;;;0.73;100.00;100026.66;7394063;19;20182;-45
2022/01/08 08:55:30;;;;;;;16.90;8.68;;;;;;;0.73;100.00;100030.09;7398222;19;20202;-50
2022/01/08 08:57:59;;;;;;;25.00;11.23;;;;;;;0.74;100.00;100033.50;7392866;19;20474;-45
2022/01/08 09:00:29;;;;;;;28.50;12.32;;;;;;;0.81;100.00;100025.50;7398103;19;20146;-45
2022/01/08 09:02:58;;;;;;;19.27;10.02;;;;;;;0.78;100.00;100030.41;7392523;19;20250;-47
2022/01/08 09:05:28;;;;;;;36.28;13.52;;;;;;;0.75;100.00;100035.25;7396719;19;20142;-48
2022/01/08 09:07:58;;;;;;;28.02;14.40;;;;;;;0.78;100.00;100033.81;7392426;19;20246;-47
2022/01/08 09:10:30;;;;;;;19.45;8.00;;;;;;;0.73;100.00;100036.81;7397817;19;20182;-46
2022/01/08 09:13:00;;;;;;;21.15;10.63;;;;;;;0.76;100.00;100042.09;7393165;19;20584;-47
2022/01/08 09:15:30;;;;;;;33.55;14.02;;;;;;;0.86;100.00;100041.09;7398164;19;20137;-47
2022/01/08 09:18:00;;;;;;;29.27;13.13;;;;;;;0.87;100.00;100033.56;7392185;19;20242;-50
2022/01/08 09:20:31;;;;;;;26.42;11.70;;;;;;;0.89;100.00;100054.00;7397399;19;20195;-48
2022/01/08 09:23:01;;;;;;;28.00;10.07;;;;;;;0.82;100.00;100047.59;7393499;19;20193;-44
2022/01/08 09:25:33;;;;;;;16.60;6.93;;;;;;;0.83;100.00;100046.84;7396343;19;20134;-46
2022/01/08 09:28:03;;;;;;;25.40;9.00;;;;;;;0.87;100.00;100042.84;7392114;19;20200;-50
2022/01/08 09:30:32;;;;;;;24.73;11.40;;;;;;;0.89;100.00;100046.38;7399896;19;20175;-50
2022/01/08 09:33:02;;;;;;;18.33;8.70;;;;;;;0.91;100.00;100043.16;7393725;19;20202;-52
2022/01/08 09:35:32;;;;;;;23.77;10.70;;;;;;;0.97;100.00;100046.91;7397363;19;20179;-49
2022/01/08 09:38:01;;;;;;;16.38;6.63;;;;;;;0.90;100.00;100046.50;7391944;19;20249;-48
2022/01/08 09:40:33;;;;;;;21.20;10.18;;;;;;;0.97;100.00;100044.38;7397023;19;20124;-46
2022/01/08 09:43:03;;;;;;;13.43;6.78;;;;;;;0.96;100.00;100047.69;7392665;19;20187;-46
2022/01/08 09:45:33;;;;;;;22.17;10.38;;;;;;;0.99;100.00;100045.34;7400234;19;20130;-45
2022/01/08 09:48:02;;;;;;;20.10;9.50;;;;;;;1.03;100.00;100044.78;7398607;19;20194;-48
2022/01/08 09:50:32;;;;;;;17.75;7.75;;;;;;;1.04;100.00;100046.56;7407759;19;20119;-51
2022/01/08 09:53:01;;;;;;;18.42;8.05;;;;;;;1.02;100.00;100046.44;7401808;19;20186;-48
2022/01/08 09:55:34;;;;;;;20.25;8.10;;;;;;;1.05;100.00;100043.22;7407121;19;20186;-48
2022/01/08 09:58:03;;;;;;;22.35;9.05;;;;;;;1.09;100.00;100050.28;7397477;19;20197;-47
2022/01/08 10:00:34;;;;;;;21.05;8.30;;;;;;;1.07;100.00;100050.19;7403978;19;20541;-47
2022/01/08 10:03:21;;;;;;;20.05;8.25;;;;;;;1.02;100.00;100040.50;7400985;19;20461;-49
2022/01/08 10:05:54;;;;;;;9.68;4.97;;;;;;;1.18;100.00;100047.50;7404502;19;20127;-49
2022/01/08 10:08:44;;;;;;;20.40;10.27;;;;;;;1.13;100.00;100043.75;7400466;19;20201;-50
2022/01/08 10:11:17;;;;;;;39.17;17.50;;;;;;;1.65;100.00;100043.84;7399029;19;20151;-50
2022/01/08 10:13:51;;;;;;;30.95;13.75;;;;;;;1.68;100.00;100048.22;7404840;19;20777;-49
2022/01/08 10:19:23;;;;;;;26.15;12.93;;;;;;;1.51;100.00;100052.19;7400459;19;20166;-46
2022/01/08 10:21:53;;;;;;;32.88;6.07;;;;;;;1.43;100.00;100057.66;7395897;19;20182;-55
2022/01/08 10:24:26;;;;;;;20.05;9.50;;;;;;;1.53;100.00;100046.44;7402885;19;20171;-48
2022/01/08 10:27:03;;;;;;;12.75;6.00;;;;;;;1.48;100.00;100052.88;7396829;19;20242;-48
2022/01/08 10:29:33;;;;;;;16.27;8.25;;;;;;;1.52;100.00;100043.78;7401018;19;20165;-48
2022/01/08 10:32:08;;;;;;;18.17;8.27;;;;;;;1.55;100.00;100050.00;7398838;19;20186;-48
2022/01/08 10:34:38;;;;;;;19.00;9.55;;;;;;;1.65;100.00;100051.47;7402786;19;20125;-51
2022/01/08 10:37:09;;;;;;;11.63;5.07;;;;;;;1.55;100.00;100054.19;7399231;19;20190;-50
2022/01/08 10:39:39;;;;;;;18.67;8.02;;;;;;;1.69;100.00;100043.25;7400148;19;20227;-51
2022/01/08 10:42:14;;;;;;;20.38;9.10;;;;;;;1.74;100.00;100041.91;7398201;19;20190;-47
2022/01/08 10:44:46;;;;;;;20.13;7.75;;;;;;;1.87;100.00;100038.50;7405120;19;20127;-45
2022/01/08 10:47:17;;;;;;;25.08;11.13;;;;;;;1.95;100.00;100030.47;7397125;19;20203;-49
2022/01/08 10:49:48;;;;;;;14.80;5.83;;;;;;;1.98;100.00;100030.66;7399972;19;20159;-50
2022/01/08 10:52:20;;;;;;;29.67;10.77;;;;;;;2.11;100.00;100028.13;7397868;19;20932;-48
2022/01/08 10:54:50;;;;;;;16.37;7.80;;;;;;;2.15;100.00;100021.56;7402391;19;20400;-48
2022/01/08 10:57:22;;;;;;;28.77;9.97;;;;;;;2.26;100.00;100018.03;7395312;19;20419;-48
2022/01/08 10:59:58;;;;;;;16.17;7.80;;;;;;;2.10;100.00;100022.97;7401963;19;20408;-47
2022/01/08 11:02:28;;;;;;;17.05;5.95;;;;;;;2.15;100.00;100024.09;7396575;19;20245;-46
2022/01/08 11:04:58;;;;;;;8.80;5.10;;;;;;;1.96;100.00;100033.13;7401281;19;20123;-50
2022/01/08 11:07:29;;;;;;;32.80;12.47;;;;;;;2.14;100.00;100028.34;7396503;19;20408;-51
2022/01/08 11:10:03;;;;;;;17.13;8.55;;;;;;;2.22;100.00;100033.94;7404257;19;20451;-53
2022/01/08 11:12:40;;;;;;;40.17;13.00;;;;;;;2.16;100.00;100029.31;7397463;19;20190;-50
2022/01/08 11:15:36;;;;;;;15.50;8.47;;;;;;;2.23;100.00;100017.88;7400883;19;20864;-46
2022/01/08 11:18:05;;;;;;;26.47;9.27;;;;;;;2.31;100.00;100015.81;7395643;19;20498;-49
2022/01/08 11:20:55;;;;;;;16.23;7.70;;;;;;;2.34;100.00;100010.00;7400904;19;20728;-51
2022/01/08 11:23:26;;;;;;;19.70;8.80;;;;;;;2.34;100.00;100017.63;7396594;19;20245;-47
2022/01/08 11:25:58;;;;;;;23.87;9.40;;;;;;;2.38;100.00;100002.69;7400087;19;20128;-49
2022/01/08 11:28:34;;;;;;;28.83;11.60;;;;;;;2.45;100.00;100003.06;7394983;19;20739;-47
2022/01/08 11:31:05;;;;;;;19.53;8.07;;;;;;;2.37;100.00;100005.13;7400998;19;20395;-49
2022/01/08 11:33:36;;;;;;;19.67;8.57;;;;;;;2.31;100.00;99989.47;7394100;19;20408;-48
2022/01/08 11:36:07;;;;;;;18.45;10.10;;;;;;;2.47;100.00;99974.38;7400576;19;20407;-46
2022/01/08 11:38:37;;;;;;;45.13;11.50;;;;;;;2.43;100.00;99980.03;7396183;19;20279;-55
2022/01/08 11:41:06;;;;;;;14.38;7.50;;;;;;;2.52;100.00;99974.63;7401498;19;20474;-50
2022/01/08 11:43:40;;;;;;;20.47;8.07;;;;;;;2.45;100.00;99969.97;7396721;19;20254;-50
2022/01/08 11:46:11;;;;;;;16.20;7.60;;;;;;;2.43;100.00;99969.84;7402534;19;20853;-50
2022/01/08 11:48:43;;;;;;;15.03;6.80;;;;;;;2.47;100.00;99974.38;7398158;19;20495;-49